Weather at Heliport la Sunrisa

Public forecast

Using degrees Celsius for public forecast. Weather courtesy of forecast.io.

Closest aviation weather report (METAR) to Heliport la Sunrisa

Closest report is Naples International Airport, 14.8 nm (27.5 km) NW.

2024/05/29 10:20 (retrieved 36 minutes ago)

LIRN 291020Z VRB06KT 9999 SCT030 25/15 Q1014 NOSIG

Closest aviation forecast (TAF) to Heliport la Sunrisa

Closest forecast is Naples International Airport, 14.8 nm (27.5 km) NW.

2024/05/29 06:00 (retrieved 5 hours ago)

TAF LIRN 290500Z 2906/3006 VRB05KT 9999 SCT040 BECMG 2908/2910 22010KT BECMG 2916/2918 VRB05KT